createdAt,value
2022-10-10T00:00:09.279Z,77.81
2022-10-10T00:01:09.264Z,78.12
2022-10-10T00:02:09.323Z,78.46
2022-10-10T00:03:09.241Z,77.74
2022-10-10T00:04:09.227Z,77.64
2022-10-10T00:05:09.221Z,77.71
2022-10-10T00:06:09.194Z,76.92
2022-10-10T00:07:09.216Z,76.27
2022-10-10T00:08:09.179Z,75.76
2022-10-10T00:09:09.174Z,75.76
2022-10-10T00:10:09.197Z,75.24
2022-10-10T00:11:09.174Z,75.96
2022-10-10T00:12:09.133Z,75.45
2022-10-10T00:13:09.122Z,74.32
2022-10-10T00:14:09.131Z,74.63
2022-10-10T00:15:09.104Z,74.32
2022-10-10T00:16:09.108Z,74.73
2022-10-10T00:17:09.076Z,74.66
2022-10-10T00:18:09.061Z,75.38
2022-10-10T00:19:09.118Z,74.57
2022-10-10T00:20:09.070Z,74.53
2022-10-10T00:21:09.034Z,74.87
2022-10-10T00:22:09.044Z,76.00
2022-10-10T00:23:09.007Z,74.98
2022-10-10T00:24:08.993Z,73.95
2022-10-10T00:25:08.989Z,74.05
2022-10-10T00:26:09.635Z,74.26
2022-10-10T00:27:08.968Z,74.98
2022-10-10T00:28:09.029Z,73.95
2022-10-10T00:29:08.974Z,73.74
2022-10-10T00:30:08.933Z,74.49
2022-10-10T00:31:08.958Z,73.95
2022-10-10T00:32:08.906Z,73.74
2022-10-10T00:33:08.935Z,74.08
2022-10-10T00:34:08.884Z,74.91
2022-10-10T00:35:08.880Z,74.49
2022-10-10T00:36:08.858Z,74.70
2022-10-10T00:37:08.859Z,74.91
2022-10-10T00:38:08.853Z,75.11
2022-10-10T00:39:08.852Z,74.60
2022-10-10T00:40:08.906Z,76.14
2022-10-10T00:41:08.810Z,74.74
2022-10-10T00:42:08.793Z,74.22
2022-10-10T00:43:08.810Z,74.70
2022-10-10T00:44:08.783Z,74.22
2022-10-10T00:45:08.765Z,75.15
2022-10-10T00:46:08.758Z,74.22
2022-10-10T00:47:08.742Z,74.43
2022-10-10T00:48:08.741Z,74.74
2022-10-10T00:49:08.720Z,74.22
2022-10-10T00:50:08.713Z,74.32
2022-10-10T00:51:08.724Z,73.40
2022-10-10T00:52:08.682Z,73.30
2022-10-10T00:53:08.690Z,73.40
2022-10-10T00:54:08.676Z,74.19
2022-10-10T00:55:08.660Z,74.53
2022-10-10T00:56:08.662Z,74.53
2022-10-10T00:57:08.666Z,74.22
2022-10-10T00:58:08.631Z,74.63
2022-10-10T00:59:08.613Z,74.57
2022-10-10T01:00:08.585Z,74.46
2022-10-10T01:01:08.614Z,75.29
2022-10-10T01:02:08.592Z,74.15
2022-10-10T01:03:08.577Z,73.85
2022-10-10T01:04:08.553Z,74.15
2022-10-10T01:05:08.548Z,74.77
2022-10-10T01:06:08.538Z,74.87
2022-10-10T01:07:08.618Z,74.36
2022-10-10T01:08:08.521Z,73.95
2022-10-10T01:09:08.501Z,74.87
2022-10-10T01:10:08.489Z,74.36
2022-10-10T01:11:08.489Z,74.36
2022-10-10T01:12:08.452Z,74.77
2022-10-10T01:13:08.452Z,74.57
2022-10-10T01:14:08.462Z,74.67
2022-10-10T01:15:08.454Z,74.80
2022-10-10T01:16:08.427Z,75.21
2022-10-10T01:17:08.405Z,74.70
2022-10-10T01:18:08.387Z,75.12
2022-10-10T01:19:08.490Z,75.12
2022-10-10T01:20:08.372Z,75.52
2022-10-10T01:21:08.386Z,75.93
2022-10-10T01:22:08.356Z,76.76
2022-10-10T01:23:08.340Z,76.14
2022-10-10T01:24:08.321Z,76.45
2022-10-10T01:25:08.319Z,76.45
2022-10-10T01:26:08.304Z,76.04
2022-10-10T01:27:08.311Z,76.45
2022-10-10T01:28:08.332Z,75.83
2022-10-10T01:29:08.277Z,76.55
2022-10-10T01:30:08.268Z,76.45
2022-10-10T01:31:08.252Z,76.55
2022-10-10T01:32:08.253Z,76.45
2022-10-10T01:33:08.219Z,77.06
2022-10-10T01:34:08.213Z,77.99
2022-10-10T01:35:08.221Z,77.89
2022-10-10T01:36:08.183Z,77.89
2022-10-10T01:37:08.198Z,78.09
2022-10-10T01:38:08.167Z,77.82
2022-10-10T01:39:08.150Z,77.92
2022-10-10T01:40:08.149Z,78.03
2022-10-10T01:41:08.154Z,78.23
2022-10-10T01:42:08.116Z,78.75
2022-10-10T01:43:08.112Z,79.16
2022-10-10T01:44:08.105Z,79.26
2022-10-10T01:45:08.093Z,79.88
2022-10-10T01:46:08.100Z,79.47
2022-10-10T01:47:08.056Z,79.57
2022-10-10T01:48:08.057Z,79.77
2022-10-10T01:49:08.038Z,80.70
2022-10-10T01:50:08.031Z,80.94
2022-10-10T01:51:08.038Z,80.33
2022-10-10T01:52:08.025Z,80.43
2022-10-10T01:53:08.005Z,80.84
2022-10-10T01:54:07.990Z,81.35
2022-10-10T01:55:07.974Z,81.35
2022-10-10T01:56:07.963Z,81.35
2022-10-10T01:57:07.971Z,81.46
2022-10-10T01:58:07.940Z,81.56
2022-10-10T01:59:07.924Z,81.67
2022-10-10T02:00:07.918Z,81.60
2022-10-10T02:01:07.977Z,81.67
2022-10-10T02:02:07.892Z,81.91
2022-10-10T02:03:07.882Z,82.01
2022-10-10T02:04:07.884Z,81.70
2022-10-10T02:05:07.853Z,81.81
2022-10-10T02:06:07.851Z,81.91
2022-10-10T02:07:07.837Z,82.01
2022-10-10T02:08:07.847Z,82.73
2022-10-10T02:09:07.817Z,81.70
2022-10-10T02:10:07.835Z,82.32
2022-10-10T02:11:07.808Z,82.53
2022-10-10T02:12:07.824Z,82.53
2022-10-10T02:13:07.763Z,82.42
2022-10-10T02:14:07.906Z,82.63
2022-10-10T02:15:07.763Z,82.53
2022-10-10T02:16:07.758Z,82.63
2022-10-10T02:17:07.714Z,83.04
2022-10-10T02:18:07.732Z,82.63
2022-10-10T02:19:07.701Z,83.55
2022-10-10T02:20:07.715Z,83.55
2022-10-10T02:21:07.672Z,83.04
2022-10-10T02:22:07.672Z,82.93
2022-10-10T02:23:07.645Z,83.04
2022-10-10T02:24:07.639Z,82.93
2022-10-10T02:25:07.652Z,82.79
2022-10-10T02:26:08.079Z,82.73
2022-10-10T02:27:07.612Z,83.51
2022-10-10T02:28:07.690Z,83.20
2022-10-10T02:29:07.576Z,82.59
2022-10-10T02:30:09.890Z,82.65
2022-10-10T02:31:07.587Z,82.69
2022-10-10T02:32:07.549Z,82.76
2022-10-10T02:33:07.542Z,83.11
2022-10-10T02:34:07.531Z,82.79
2022-10-10T02:35:07.509Z,82.39
2022-10-10T02:36:07.535Z,82.18
2022-10-10T02:37:07.519Z,82.28
2022-10-10T02:38:07.483Z,82.39
2022-10-10T02:39:07.472Z,82.48
2022-10-10T02:40:07.472Z,82.79
2022-10-10T02:41:07.439Z,82.18
2022-10-10T02:42:07.459Z,82.34
2022-10-10T02:43:07.426Z,82.18
2022-10-10T02:44:07.415Z,81.97
2022-10-10T02:45:07.405Z,82.59
2022-10-10T02:46:07.385Z,82.59
2022-10-10T02:47:07.388Z,83.00
2022-10-10T02:48:07.370Z,82.28
2022-10-10T02:49:07.351Z,81.97
2022-10-10T02:50:07.344Z,82.96
2022-10-10T02:51:07.335Z,83.68
2022-10-10T02:52:07.336Z,83.00
2022-10-10T02:53:07.301Z,82.18
2022-10-10T02:54:07.318Z,83.00
2022-10-10T02:55:07.308Z,82.45
2022-10-10T02:56:07.278Z,82.28
2022-10-10T02:57:07.269Z,82.59
2022-10-10T02:58:07.256Z,82.39
2022-10-10T02:59:07.234Z,81.87
2022-10-10T03:00:07.255Z,81.56
2022-10-10T03:01:07.261Z,81.42
2022-10-10T03:02:07.213Z,81.62
2022-10-10T03:03:07.217Z,81.32
2022-10-10T03:04:07.190Z,81.93
2022-10-10T03:05:07.168Z,82.65
2022-10-10T03:06:07.163Z,82.28
2022-10-10T03:07:07.197Z,81.93
2022-10-10T03:08:11.418Z,82.96
2022-10-10T03:09:07.132Z,81.97
2022-10-10T03:10:07.119Z,83.17
2022-10-10T03:11:07.098Z,82.79
2022-10-10T03:12:07.095Z,82.90
2022-10-10T03:13:07.108Z,82.79
2022-10-10T03:14:07.073Z,83.11
2022-10-10T03:15:11.449Z,82.39
2022-10-10T03:16:07.042Z,81.67
2022-10-10T03:17:07.041Z,81.76
2022-10-10T03:18:07.780Z,81.76
2022-10-10T03:19:07.409Z,81.56
2022-10-10T03:20:07.638Z,81.97
2022-10-10T03:21:14.620Z,81.87
2022-10-10T03:22:06.965Z,81.67
2022-10-10T03:23:06.965Z,81.87
2022-10-10T03:24:06.985Z,81.21
2022-10-10T03:25:06.964Z,80.70
2022-10-10T03:26:06.962Z,80.80
2022-10-10T03:27:06.951Z,81.01
2022-10-10T03:28:06.970Z,81.01
2022-10-10T03:29:06.913Z,81.21
2022-10-10T03:30:06.906Z,81.73
2022-10-10T03:31:06.864Z,81.73
2022-10-10T03:32:10.752Z,81.73
2022-10-10T03:33:06.858Z,81.42
2022-10-10T03:34:06.868Z,82.04
2022-10-10T03:35:06.833Z,82.39
2022-10-10T03:36:06.822Z,82.48
2022-10-10T03:37:06.805Z,82.90
2022-10-10T03:38:06.799Z,83.51
2022-10-10T03:39:06.788Z,83.41
2022-10-10T03:40:06.792Z,84.75
2022-10-10T03:41:06.760Z,84.13
2022-10-10T03:42:06.753Z,84.48
2022-10-10T03:43:06.736Z,84.48
2022-10-10T03:44:06.727Z,84.27
2022-10-10T03:45:06.735Z,84.79
2022-10-10T03:46:06.713Z,84.89
2022-10-10T03:47:06.689Z,84.75
2022-10-10T03:48:06.681Z,84.75
2022-10-10T03:49:06.659Z,84.44
2022-10-10T03:50:06.707Z,84.34
2022-10-10T03:51:06.650Z,84.64
2022-10-10T03:52:06.647Z,84.61
2022-10-10T03:53:06.620Z,84.09
2022-10-10T03:54:06.613Z,84.40
2022-10-10T03:55:06.617Z,84.40
2022-10-10T03:56:06.598Z,84.40
2022-10-10T03:57:06.584Z,84.09
2022-10-10T03:58:06.576Z,84.40
2022-10-10T03:59:06.577Z,84.61
2022-10-10T04:00:06.568Z,84.20
2022-10-10T04:01:06.586Z,83.89
2022-10-10T04:02:06.531Z,83.44
2022-10-10T04:03:06.643Z,82.82
2022-10-10T04:04:06.505Z,83.33
2022-10-10T04:05:06.984Z,83.09
2022-10-10T04:06:06.476Z,82.68
2022-10-10T04:07:06.474Z,82.68
2022-10-10T04:08:06.471Z,82.57
2022-10-10T04:09:06.443Z,82.78
2022-10-10T04:10:06.447Z,82.68
2022-10-10T04:11:09.120Z,82.99
2022-10-10T04:12:06.440Z,82.99
2022-10-10T04:13:06.391Z,82.89
2022-10-10T04:14:06.380Z,82.68
2022-10-10T04:15:06.371Z,82.37
2022-10-10T04:16:06.421Z,82.27
2022-10-10T04:17:06.350Z,82.78
2022-10-10T04:18:06.489Z,82.99
2022-10-10T04:19:06.329Z,82.47
2022-10-10T04:20:06.342Z,82.68
2022-10-10T04:21:06.311Z,83.40
2022-10-10T04:22:10.800Z,82.47
2022-10-10T04:23:06.272Z,82.57
2022-10-10T04:24:06.267Z,82.47
2022-10-10T04:25:06.260Z,82.99
2022-10-10T04:26:06.266Z,83.09
2022-10-10T04:27:06.241Z,83.09
2022-10-10T04:28:06.281Z,82.57
2022-10-10T04:29:06.215Z,82.99
2022-10-10T04:30:06.199Z,83.61
2022-10-10T04:31:06.207Z,83.61
2022-10-10T04:32:06.208Z,84.67
2022-10-10T04:33:06.162Z,82.89
2022-10-10T04:34:06.155Z,83.13
2022-10-10T04:35:06.147Z,82.57
2022-10-10T04:36:06.135Z,83.81
2022-10-10T04:37:06.137Z,83.29
2022-10-10T04:38:06.181Z,83.40
2022-10-10T04:39:06.098Z,83.61
2022-10-10T04:40:06.090Z,83.09
2022-10-10T04:41:06.099Z,83.29
2022-10-10T04:42:06.072Z,82.89
2022-10-10T04:43:06.069Z,82.68
2022-10-10T04:44:06.045Z,82.78
2022-10-10T04:45:06.042Z,82.57
2022-10-10T04:46:06.036Z,82.78
2022-10-10T04:47:06.031Z,82.57
2022-10-10T04:48:05.994Z,83.29
2022-10-10T04:49:05.979Z,83.19
2022-10-10T04:50:05.964Z,83.09
2022-10-10T04:51:05.962Z,83.13
2022-10-10T04:52:05.950Z,83.64
2022-10-10T04:53:05.963Z,84.16
2022-10-10T04:54:05.925Z,83.54
2022-10-10T04:55:05.917Z,84.47
2022-10-10T04:56:05.919Z,84.26
2022-10-10T04:57:05.901Z,83.95
2022-10-10T04:58:05.901Z,84.50
2022-10-10T04:59:05.879Z,84.40
2022-10-10T05:00:05.869Z,84.71
2022-10-10T05:01:05.900Z,84.71
2022-10-10T05:02:05.833Z,85.74
2022-10-10T05:03:05.829Z,85.53
2022-10-10T05:04:05.808Z,85.33
2022-10-10T05:05:05.824Z,85.12
2022-10-10T05:06:05.785Z,85.26
2022-10-10T05:07:05.786Z,85.57
2022-10-10T05:08:05.764Z,85.16
2022-10-10T05:09:05.763Z,85.68
2022-10-10T05:10:05.752Z,85.57
2022-10-10T05:11:05.763Z,85.36
2022-10-10T05:12:05.713Z,85.57
2022-10-10T05:13:05.713Z,86.29
2022-10-10T05:14:05.712Z,85.47
2022-10-10T05:15:05.713Z,85.57
2022-10-10T05:16:05.700Z,84.91
2022-10-10T05:17:05.667Z,84.64
2022-10-10T05:18:05.667Z,84.03
2022-10-10T05:19:05.646Z,84.40
2022-10-10T05:20:05.646Z,84.30
2022-10-10T05:21:05.669Z,84.09
2022-10-10T05:22:05.623Z,84.61
2022-10-10T05:23:06.251Z,84.75
2022-10-10T05:24:05.586Z,84.64
2022-10-10T05:25:05.606Z,85.63
2022-10-10T05:26:05.561Z,85.43
2022-10-10T05:27:05.622Z,85.43
2022-10-10T05:28:05.614Z,84.91
2022-10-10T05:29:05.563Z,84.81
2022-10-10T05:30:05.514Z,84.95
2022-10-10T05:31:05.516Z,84.71
2022-10-10T05:32:10.068Z,84.54
2022-10-10T05:33:06.482Z,84.54
2022-10-10T05:34:05.494Z,84.44
2022-10-10T05:35:05.485Z,84.30
2022-10-10T05:36:05.497Z,84.85
2022-10-10T05:37:05.473Z,84.44
2022-10-10T05:38:05.411Z,84.64
2022-10-10T05:39:05.437Z,84.61
2022-10-10T05:40:05.411Z,84.64
2022-10-10T05:41:05.447Z,84.85
2022-10-10T05:42:05.436Z,85.02
2022-10-10T05:43:05.459Z,84.44
2022-10-10T05:44:05.360Z,84.95
2022-10-10T05:45:05.348Z,84.64
2022-10-10T05:46:05.438Z,84.64
2022-10-10T05:47:05.348Z,84.95
2022-10-10T05:48:05.314Z,85.88
2022-10-10T05:49:05.301Z,86.08
2022-10-10T05:50:05.287Z,85.53
2022-10-10T05:51:05.272Z,84.54
2022-10-10T05:52:09.539Z,84.71
2022-10-10T05:53:05.260Z,84.54
2022-10-10T05:54:05.259Z,84.23
2022-10-10T05:55:05.416Z,84.85
2022-10-10T05:56:05.423Z,84.34
2022-10-10T05:57:05.327Z,84.95
2022-10-10T05:58:05.192Z,84.85
2022-10-10T05:59:05.207Z,84.64
2022-10-10T06:00:05.178Z,84.13
2022-10-10T06:01:05.163Z,83.92
2022-10-10T06:02:05.196Z,84.30
2022-10-10T06:03:05.171Z,84.81
2022-10-10T06:04:05.151Z,84.91
2022-10-10T06:05:05.118Z,84.81
2022-10-10T06:06:05.500Z,84.64
2022-10-10T06:07:05.096Z,84.64
2022-10-10T06:08:10.676Z,85.16
2022-10-10T06:09:06.094Z,85.47
2022-10-10T06:10:05.571Z,85.47
2022-10-10T06:11:05.049Z,85.78
2022-10-10T06:12:05.039Z,85.47
2022-10-10T06:13:05.021Z,84.95
2022-10-10T06:14:05.027Z,85.16
2022-10-10T06:15:05.014Z,85.68
2022-10-10T06:16:04.996Z,84.95
2022-10-10T06:17:04.979Z,85.78
2022-10-10T06:18:04.974Z,85.57
2022-10-10T06:19:04.972Z,85.36
2022-10-10T06:20:05.025Z,84.75
2022-10-10T06:21:04.957Z,84.95
2022-10-10T06:22:04.922Z,85.06
2022-10-10T06:23:04.914Z,84.95
2022-10-10T06:24:04.947Z,84.75
2022-10-10T06:25:12.109Z,84.95
2022-10-10T06:26:10.317Z,85.06
2022-10-10T06:27:16.154Z,84.95
2022-10-10T06:28:12.939Z,84.34
2022-10-10T06:31:58.266Z,85.68
2022-10-10T06:32:58.533Z,85.33
2022-10-10T06:33:58.231Z,85.12
2022-10-10T06:34:58.211Z,85.02
2022-10-10T06:35:58.200Z,85.22
2022-10-10T06:36:58.205Z,84.75
2022-10-10T06:37:58.182Z,84.91
2022-10-10T06:38:58.186Z,85.53
2022-10-10T06:39:58.171Z,85.02
2022-10-10T06:41:00.508Z,85.12
2022-10-10T06:41:58.133Z,85.12
2022-10-10T06:42:58.149Z,85.84
2022-10-10T06:43:58.111Z,85.02
2022-10-10T06:44:58.114Z,85.74
2022-10-10T06:45:58.088Z,85.43
2022-10-10T06:46:58.075Z,85.33
2022-10-10T06:47:58.071Z,85.74
2022-10-10T06:48:58.412Z,85.94
2022-10-10T06:49:58.090Z,86.05
2022-10-10T06:50:58.027Z,85.94
2022-10-10T06:51:58.021Z,85.90
2022-10-10T06:52:58.029Z,85.49
2022-10-10T06:53:58.015Z,85.18
2022-10-10T06:54:58.005Z,85.90
2022-10-10T06:55:57.975Z,85.28
2022-10-10T06:56:57.985Z,85.39
2022-10-10T06:57:57.948Z,84.88
2022-10-10T06:58:57.988Z,84.26
2022-10-10T06:59:57.923Z,84.47
2022-10-10T07:00:57.949Z,84.05
2022-10-10T07:01:57.978Z,84.67
2022-10-10T07:02:57.893Z,84.67
2022-10-10T07:03:57.883Z,84.81
2022-10-10T07:04:57.866Z,83.99
2022-10-10T07:05:57.881Z,85.02
2022-10-10T07:06:57.852Z,84.50
2022-10-10T07:07:57.833Z,84.40
2022-10-10T07:08:57.831Z,84.77
2022-10-10T07:09:57.816Z,84.20
2022-10-10T07:10:57.829Z,85.02
2022-10-10T07:11:57.808Z,85.33
2022-10-10T07:12:58.052Z,85.12
2022-10-10T07:13:57.784Z,85.43
2022-10-10T07:14:57.780Z,85.33
2022-10-10T07:15:57.756Z,84.71
2022-10-10T07:16:57.723Z,85.33
2022-10-10T07:17:57.718Z,85.49
2022-10-10T07:18:57.709Z,85.08
2022-10-10T07:19:57.719Z,85.08
2022-10-10T07:20:57.688Z,84.98
2022-10-10T07:21:57.674Z,85.60
2022-10-10T07:22:57.667Z,84.67
2022-10-10T07:23:57.648Z,85.70
2022-10-10T07:24:57.665Z,85.49
2022-10-10T07:25:57.633Z,85.49
2022-10-10T07:27:03.703Z,84.88
2022-10-10T07:27:58.637Z,85.28
2022-10-10T07:28:57.602Z,85.60
2022-10-10T07:29:57.582Z,84.98
2022-10-10T07:30:57.611Z,84.53
2022-10-10T07:31:57.563Z,84.94
2022-10-10T07:32:57.570Z,85.46
2022-10-10T07:33:57.539Z,84.42
2022-10-10T07:34:57.527Z,84.69
2022-10-10T07:35:57.515Z,83.91
2022-10-10T07:36:57.508Z,84.28
2022-10-10T07:37:57.512Z,83.77
2022-10-10T07:38:57.578Z,83.67
2022-10-10T07:39:57.500Z,83.98
2022-10-10T07:40:57.479Z,83.46
2022-10-10T07:41:57.450Z,83.36
2022-10-10T07:42:57.462Z,84.04
2022-10-10T07:43:57.427Z,84.25
2022-10-10T07:44:57.436Z,84.14
2022-10-10T07:45:57.448Z,84.14
2022-10-10T07:46:57.412Z,84.10
2022-10-10T07:47:57.383Z,84.52
2022-10-10T07:48:57.390Z,82.77
2022-10-10T07:49:57.358Z,83.18
2022-10-10T07:50:57.349Z,82.93
2022-10-10T07:52:00.428Z,82.63
2022-10-10T07:52:57.320Z,83.45
2022-10-10T07:53:57.311Z,82.49
2022-10-10T07:54:57.352Z,82.79
2022-10-10T07:55:57.292Z,82.49
2022-10-10T07:57:05.031Z,82.59
2022-10-10T07:57:57.801Z,82.08
2022-10-10T07:58:57.459Z,82.49
2022-10-10T07:59:57.489Z,82.49
2022-10-10T08:00:57.336Z,82.65
2022-10-10T08:01:57.320Z,82.04
2022-10-10T08:02:57.289Z,81.52
2022-10-10T08:03:57.855Z,82.14
2022-10-10T08:04:57.246Z,83.06
2022-10-10T08:05:57.211Z,82.55
2022-10-10T08:06:57.329Z,82.24
2022-10-10T08:07:57.311Z,80.91
2022-10-10T08:08:57.345Z,81.52
2022-10-10T08:09:57.450Z,80.19
2022-10-10T08:10:57.265Z,80.09
2022-10-10T08:11:57.212Z,80.19
2022-10-10T08:12:57.513Z,81.08
2022-10-10T08:13:57.278Z,81.29
2022-10-10T08:14:57.160Z,81.56
2022-10-10T08:15:57.243Z,81.90
2022-10-10T08:16:57.069Z,81.86
2022-10-10T08:17:57.156Z,81.76
2022-10-10T08:18:57.067Z,83.09
2022-10-10T08:19:57.025Z,81.76
2022-10-10T08:20:57.044Z,81.24
2022-10-10T08:21:57.003Z,81.15
2022-10-10T08:22:57.070Z,81.15
2022-10-10T08:23:57.005Z,81.04
2022-10-10T08:24:57.154Z,80.63
2022-10-10T08:25:57.090Z,81.21
2022-10-10T08:26:57.136Z,81.41
2022-10-10T08:27:57.017Z,81.31
2022-10-10T08:28:56.957Z,81.01
2022-10-10T08:29:56.923Z,80.46
2022-10-10T08:30:56.967Z,80.19
2022-10-10T08:31:56.895Z,80.80
2022-10-10T08:32:56.879Z,81.48
2022-10-10T08:33:56.866Z,81.27
2022-10-10T08:34:56.866Z,80.76
2022-10-10T08:35:56.868Z,80.87
2022-10-10T08:36:56.853Z,81.13
2022-10-10T08:37:56.858Z,81.13
2022-10-10T08:38:56.831Z,80.52
2022-10-10T08:39:56.798Z,80.32
2022-10-10T08:40:56.877Z,80.05
2022-10-10T08:41:56.779Z,80.73
2022-10-10T08:42:57.127Z,81.34
2022-10-10T08:43:56.754Z,80.42
2022-10-10T08:44:56.743Z,79.80
2022-10-10T08:45:56.748Z,79.80
2022-10-10T08:46:56.724Z,80.01
2022-10-10T08:47:56.727Z,79.50
2022-10-10T08:48:56.702Z,80.11
2022-10-10T08:49:56.726Z,79.80
2022-10-10T08:50:56.767Z,79.97
2022-10-10T08:51:56.670Z,80.73
2022-10-10T08:52:56.698Z,79.91
2022-10-10T08:53:56.635Z,80.11
2022-10-10T08:54:58.587Z,80.01
2022-10-10T08:55:56.769Z,79.91
2022-10-10T08:56:56.638Z,79.50
2022-10-10T08:57:56.624Z,79.91
2022-10-10T08:58:56.628Z,79.80
2022-10-10T08:59:56.594Z,79.80
2022-10-10T09:00:56.582Z,79.39
2022-10-10T09:02:17.859Z,79.60
2022-10-10T09:02:57.769Z,79.46
2022-10-10T09:03:56.542Z,79.66
2022-10-10T09:04:56.549Z,79.97
2022-10-10T09:05:56.501Z,79.66
2022-10-10T09:06:56.520Z,80.28
2022-10-10T09:07:56.480Z,79.57
2022-10-10T09:08:56.469Z,79.66
2022-10-10T09:09:56.473Z,79.46
2022-10-10T09:10:56.734Z,79.87
2022-10-10T09:11:56.454Z,80.14
2022-10-10T09:12:56.421Z,80.04
2022-10-10T09:13:56.443Z,79.66
2022-10-10T09:14:59.859Z,79.22
2022-10-10T09:15:57.391Z,79.12
2022-10-10T09:16:56.423Z,79.63
2022-10-10T09:17:56.368Z,79.32
2022-10-10T09:18:56.359Z,79.80
2022-10-10T09:19:56.349Z,80.00
2022-10-10T09:20:57.798Z,78.67
2022-10-10T09:21:56.334Z,78.06
2022-10-10T09:22:56.347Z,78.57
2022-10-10T09:23:56.301Z,79.39
2022-10-10T09:24:56.294Z,79.08
2022-10-10T09:25:56.276Z,78.88
2022-10-10T09:26:56.305Z,78.43
2022-10-10T09:27:56.286Z,79.25
2022-10-10T09:28:56.368Z,79.35
2022-10-10T09:29:56.232Z,78.53
2022-10-10T09:30:56.636Z,78.12
2022-10-10T09:31:56.252Z,78.43
2022-10-10T09:32:56.218Z,78.43
2022-10-10T09:33:56.187Z,78.43
2022-10-10T09:34:56.177Z,78.43
2022-10-10T09:35:56.193Z,79.66
2022-10-10T09:36:59.343Z,79.62
2022-10-10T09:37:56.153Z,79.41
2022-10-10T09:38:56.159Z,78.50
2022-10-10T09:39:56.151Z,78.80
2022-10-10T09:40:56.460Z,79.17
2022-10-10T09:41:56.157Z,79.68
2022-10-10T09:42:56.109Z,77.89
2022-10-10T09:43:56.074Z,78.26
2022-10-10T09:44:56.127Z,78.60
2022-10-10T09:45:56.064Z,78.16
2022-10-10T09:46:56.059Z,79.79
2022-10-10T09:47:56.032Z,79.99
2022-10-10T09:48:56.017Z,79.68
2022-10-10T09:49:56.115Z,79.95
2022-10-10T09:50:56.352Z,80.36
2022-10-10T09:51:56.033Z,78.22
2022-10-10T09:52:55.964Z,78.22
2022-10-10T09:53:55.955Z,78.59
2022-10-10T09:54:56.081Z,78.69
2022-10-10T09:55:55.956Z,77.81
2022-10-10T09:56:55.957Z,78.49
2022-10-10T09:57:55.968Z,78.39
2022-10-10T09:58:55.907Z,78.89
2022-10-10T09:59:55.892Z,79.41
2022-10-10T10:00:56.305Z,79.68
2022-10-10T10:01:55.871Z,78.35
2022-10-10T10:02:55.892Z,77.74
2022-10-10T10:04:06.624Z,76.68
2022-10-10T10:04:56.847Z,77.40
2022-10-10T10:05:55.876Z,78.21
2022-10-10T10:06:55.832Z,76.89
2022-10-10T10:07:55.826Z,78.21
2022-10-10T10:08:55.788Z,78.01
2022-10-10T10:09:55.777Z,79.43
2022-10-10T10:10:56.245Z,77.26
2022-10-10T10:11:55.766Z,76.55
2022-10-10T10:12:55.759Z,76.34
2022-10-10T10:13:55.745Z,76.95
2022-10-10T10:14:55.718Z,77.12
2022-10-10T10:15:55.720Z,77.02
2022-10-10T10:16:55.694Z,77.22
2022-10-10T10:17:55.723Z,77.63
2022-10-10T10:18:55.709Z,77.53
2022-10-10T10:19:55.659Z,78.34
2022-10-10T10:20:55.752Z,78.48
2022-10-10T10:21:55.665Z,77.83
2022-10-10T10:22:55.647Z,78.64
2022-10-10T10:23:55.617Z,79.36
2022-10-10T10:24:55.604Z,80.17
2022-10-10T10:25:55.889Z,79.93
2022-10-10T10:26:55.596Z,79.93
2022-10-10T10:27:55.580Z,80.54
2022-10-10T10:28:55.633Z,79.52
2022-10-10T10:29:55.566Z,79.02
2022-10-10T10:30:55.550Z,77.80
2022-10-10T10:31:55.549Z,78.17
2022-10-10T10:32:55.539Z,78.78
2022-10-10T10:33:55.508Z,79.59
2022-10-10T10:34:55.511Z,79.79
2022-10-10T10:35:55.555Z,78.17
2022-10-10T10:36:55.470Z,78.78
2022-10-10T10:37:55.461Z,79.18
2022-10-10T10:38:55.466Z,79.69
2022-10-10T10:39:55.444Z,78.64
2022-10-10T10:40:55.470Z,79.35
2022-10-10T10:41:55.431Z,78.30
2022-10-10T10:42:55.431Z,78.50
2022-10-10T10:43:55.395Z,79.31
2022-10-10T10:44:55.389Z,77.89
2022-10-10T10:45:55.393Z,79.07
2022-10-10T10:46:55.393Z,77.65
2022-10-10T10:47:55.395Z,76.50
2022-10-10T10:48:55.412Z,76.50
2022-10-10T10:49:55.342Z,75.85
2022-10-10T10:50:55.321Z,74.88
2022-10-10T10:51:55.313Z,75.55
2022-10-10T10:52:55.326Z,76.83
2022-10-10T10:53:55.300Z,75.62
2022-10-10T10:54:55.265Z,74.77
2022-10-10T10:55:55.261Z,74.81
2022-10-10T10:56:58.883Z,74.16
2022-10-10T10:58:30.235Z,74.27
2022-10-10T11:00:17.067Z,73.25
2022-10-10T11:01:22.453Z,73.39
2022-10-10T11:01:57.994Z,73.76
2022-10-10T11:03:02.595Z,74.60
2022-10-10T11:05:20.076Z,73.25
2022-10-10T11:05:22.594Z,73.09
2022-10-10T11:05:56.257Z,74.00
2022-10-10T11:07:17.446Z,74.27
2022-10-10T11:07:56.135Z,74.98
2022-10-10T11:08:55.118Z,74.23
2022-10-10T11:09:55.157Z,74.33
2022-10-10T11:10:55.097Z,73.12
2022-10-10T11:11:55.094Z,73.28
2022-10-10T11:12:55.058Z,73.49
2022-10-10T11:13:55.066Z,71.67
2022-10-10T11:14:55.048Z,72.99
2022-10-10T11:16:06.203Z,74.19
2022-10-10T11:16:56.013Z,74.26
2022-10-10T11:17:54.998Z,74.77
2022-10-10T11:18:54.994Z,73.15
2022-10-10T11:19:55.000Z,72.75
2022-10-10T11:20:54.975Z,72.04
2022-10-10T11:21:54.952Z,72.64
2022-10-10T11:22:55.000Z,72.71
2022-10-10T11:23:54.931Z,73.02
2022-10-10T11:24:54.940Z,72.81
2022-10-10T11:25:54.908Z,73.11
2022-10-10T11:26:54.910Z,73.08
2022-10-10T11:27:55.001Z,73.28
2022-10-10T11:28:54.981Z,73.99
2022-10-10T11:29:54.881Z,73.05
2022-10-10T11:30:54.890Z,73.05
2022-10-10T11:31:54.859Z,73.32
2022-10-10T11:32:54.835Z,71.91
2022-10-10T11:33:57.270Z,70.39
2022-10-10T11:34:54.831Z,71.10
2022-10-10T11:35:54.803Z,71.57
2022-10-10T11:36:54.810Z,71.87
2022-10-10T11:37:54.776Z,71.84
2022-10-10T11:38:54.770Z,71.44
2022-10-10T11:39:54.753Z,71.60
2022-10-10T11:40:54.757Z,68.58
2022-10-10T11:41:54.752Z,70.59
2022-10-10T11:42:54.726Z,70.90
2022-10-10T11:43:54.710Z,70.19
2022-10-10T11:44:54.710Z,69.18
2022-10-10T11:45:56.067Z,67.97
2022-10-10T11:46:54.695Z,69.29
2022-10-10T11:47:54.667Z,69.29
2022-10-10T11:48:54.656Z,70.12
2022-10-10T11:49:54.656Z,69.42
2022-10-10T11:50:54.634Z,70.62
2022-10-10T11:51:58.066Z,70.19
2022-10-10T11:52:55.641Z,68.48
2022-10-10T11:53:54.604Z,69.45
2022-10-10T11:54:54.601Z,69.25
2022-10-10T11:55:54.576Z,70.12
2022-10-10T11:56:54.563Z,69.82
2022-10-10T11:57:54.583Z,69.12
2022-10-10T11:58:54.563Z,69.52
2022-10-10T11:59:54.537Z,68.01
2022-10-10T12:00:54.546Z,68.08
2022-10-10T12:01:54.648Z,68.21
2022-10-10T12:02:54.542Z,69.09
2022-10-10T12:03:54.487Z,69.22
2022-10-10T12:04:54.480Z,67.91
2022-10-10T12:05:54.494Z,67.31
2022-10-10T12:06:54.447Z,67.18
2022-10-10T12:07:54.469Z,68.28
2022-10-10T12:08:55.068Z,67.98
2022-10-10T12:09:54.417Z,68.48
2022-10-10T12:10:54.408Z,66.03
2022-10-10T12:11:54.438Z,68.08
2022-10-10T12:12:54.396Z,66.97
2022-10-10T12:13:54.370Z,66.77
2022-10-10T12:14:54.366Z,67.88
2022-10-10T12:15:55.116Z,66.17
2022-10-10T12:16:54.342Z,65.97
2022-10-10T12:17:54.363Z,66.00
2022-10-10T12:18:54.340Z,67.31
2022-10-10T12:19:54.343Z,68.51
2022-10-10T12:20:54.293Z,66.91
2022-10-10T12:21:54.298Z,66.43
2022-10-10T12:22:54.289Z,66.63
2022-10-10T12:23:54.265Z,68.35
2022-10-10T12:24:54.260Z,69.45
2022-10-10T12:25:54.249Z,68.95
2022-10-10T12:26:54.297Z,68.44
2022-10-10T12:27:54.222Z,67.84
2022-10-10T12:28:54.267Z,66.53
2022-10-10T12:29:54.206Z,66.06
2022-10-10T12:30:57.949Z,65.96
2022-10-10T12:31:54.207Z,66.27
2022-10-10T12:32:54.227Z,67.97
2022-10-10T12:33:54.192Z,69.09
2022-10-10T12:34:54.151Z,68.18
2022-10-10T12:35:54.142Z,67.10
2022-10-10T12:36:54.135Z,66.30
2022-10-10T12:37:54.104Z,66.90
2022-10-10T12:38:58.639Z,67.50
2022-10-10T12:39:55.185Z,66.09
2022-10-10T12:40:54.069Z,65.89
2022-10-10T12:41:54.084Z,67.00
2022-10-10T12:42:54.056Z,66.47
2022-10-10T12:43:54.084Z,68.01
2022-10-10T12:44:54.041Z,66.90
2022-10-10T12:45:54.042Z,66.39
2022-10-10T12:46:54.000Z,66.70
2022-10-10T12:48:05.093Z,68.01
2022-10-10T12:48:54.980Z,68.01
2022-10-10T12:49:53.971Z,68.81
2022-10-10T12:50:53.971Z,68.21
2022-10-10T12:51:53.978Z,67.54
2022-10-10T12:52:53.954Z,68.24
2022-10-10T12:53:53.981Z,68.74
2022-10-10T12:54:53.916Z,68.85
2022-10-10T12:55:53.900Z,68.24